Flight Track Log - Related Links

Times and Time Zones

All times are in EDT time to prevent confusion due to time zone crossing. See the EJA583 flight status page for this flight to view local times or setup timezone preferences in your user account.

Time Position Orientation Groundspeed Altitude Reporting Facility
EDT Latitude Longitude Course Direction KTS MPH feet Rate Location/Type
Wed 06:07:07 PM 34.2022 -119.2206 282° West 147 169 1,000  Level Los Angeles Center
Wed 06:07:50 PM 34.2103 -119.2672 282° West 199 229 2,700 3,000 Climbing Los Angeles Center
Wed 06:08:45 PM 34.2047 -119.3344 264° West 232 267 5,900 3,385 Climbing Los Angeles Center
Wed 06:09:47 PM 34.1906 -119.4178 258° West 249 287 9,300 3,048 Climbing Los Angeles Center
Wed 06:10:49 PM 34.2367 -119.4381 340° North 260 299 12,200 2,661 Climbing Los Angeles Center
Wed 06:11:51 PM 34.2669 -119.3586 65° Northeast 264 304 14,800 2,064 Climbing Los Angeles Center
Wed 06:12:54 PM 34.3003 -119.2431 71° East 304 350 16,500 1,440 Climbing Los Angeles Center
Wed 06:13:56 PM 34.3342 -119.1292 70° East 350 403 17,800 1,324 Climbing Los Angeles Center
Wed 06:15:10 PM 34.3739 -118.9889 71° East 365 420 19,500 1,135 Climbing Los Angeles Center
Wed 06:16:24 PM 34.4081 -118.8681 71° East 375 432 20,600 876 Climbing Los Angeles Center
Wed 06:17:27 PM 34.4506 -118.7164 71° East 395 455 21,500 1,056 Climbing Los Angeles Center
Wed 06:18:29 PM 34.4861 -118.5889 71° East 396 456 22,800 1,548 Climbing Los Angeles Center
Wed 06:19:31 PM 34.5294 -118.4378 71° East 395 455 24,700 1,645 Climbing Los Angeles Center
Wed 06:20:33 PM 34.5628 -118.3156 72° East 387 445 26,200 1,355 Climbing Los Angeles Center
Wed 06:21:35 PM 34.5964 -118.1939 71° East 382 440 27,500 1,113 Climbing Los Angeles Center
Wed 06:22:37 PM 34.6272 -118.0808 72° East 388 447 28,500 1,210 Climbing Los Angeles Center
Wed 06:23:39 PM 34.6625 -117.9264 74° East 397 457 30,000 1,452 Climbing Los Angeles Center
Wed 06:24:41 PM 34.6919 -117.7989 74° East 395 455 31,500 1,403 Climbing Los Angeles Center
Wed 06:25:43 PM 34.7203 -117.6733 75° East 391 450 32,900 1,296 Climbing Los Angeles Center
Wed 06:26:46 PM 34.7475 -117.5467 75° East 393 452 34,200 1,200 Climbing Los Angeles Center
Wed 06:27:48 PM 34.7819 -117.3908 75° East 405 466 35,400 1,065 Climbing Los Angeles Center
Wed 06:28:50 PM 34.8125 -117.2575 74° East 414 476 36,400 1,016 Climbing Los Angeles Center
Wed 06:29:52 PM 34.8422 -117.1239 75° East 412 474 37,500 1,016 Climbing Los Angeles Center
Wed 06:30:54 PM 34.8719 -116.9883 75° East 417 480 38,500 968 Climbing Los Angeles Center
Wed 06:31:56 PM 34.9044 -116.8536 74° East 415 478 39,500 968 Climbing Los Angeles Center
Wed 06:32:58 PM 34.9944 -116.7139 52° Northeast 442 509 40,500 726 Climbing Los Angeles Center
Wed 06:34:00 PM 35.0764 -116.5992 49° Northeast 449 517 41,000 242 Climbing Los Angeles Center
Wed 06:35:02 PM 35.1586 -116.4817 49° Northeast 454 522 41,000  Level Los Angeles Center
Wed 06:36:05 PM 35.2411 -116.3653 49° Northeast 455 524 41,000  Level Los Angeles Center
Wed 06:37:07 PM 35.3208 -116.2522 49° Northeast 449 517 41,000  Level Los Angeles Center
Wed 06:38:09 PM 35.4144 -116.1181 49° Northeast 437 503 41,000  Level Los Angeles Center
Wed 06:39:11 PM 35.4933 -116.0031 50° Northeast 440 506 41,000  Level Los Angeles Center
Wed 06:40:13 PM 35.5733 -115.8894 49° Northeast 441 507 41,000  Level Los Angeles Center
Wed 06:41:15 PM 35.6575 -115.7756 48° Northeast 439 505 41,000  Level Los Angeles Center
Wed 06:42:17 PM 35.7372 -115.6594 50° Northeast 442 509 41,000  Level Los Angeles Center
Wed 06:43:19 PM 35.8178 -115.5425 50° Northeast 447 514 41,000  Level Los Angeles Center
Wed 06:44:21 PM 35.9125 -115.4017 50° Northeast 448 516 41,000  Level Los Angeles Center
Wed 06:45:23 PM 35.9914 -115.2850 50° Northeast 447 514 41,000  Level Los Angeles Center
Wed 06:46:25 PM 36.0692 -115.1700 50° Northeast 442 509 41,000  Level Los Angeles Center
Wed 06:47:27 PM 36.1175 -115.0331 66° East 432 497 41,000  Level Los Angeles Center
Wed 06:48:29 PM 36.1606 -114.8942 69° East 434 499 41,000  Level Los Angeles Center
Wed 06:49:31 PM 36.2128 -114.7283 69° East 432 497 41,000  Level Los Angeles Center
Wed 06:50:33 PM 36.2581 -114.5894 68° East 436 502 41,000  Level Los Angeles Center
Wed 06:51:35 PM 36.3006 -114.4517 69° East 432 497 41,000  Level Los Angeles Center
Wed 06:52:37 PM 36.3428 -114.3153 69° East 427 491 41,000  Level Los Angeles Center
Wed 06:53:51 PM 36.3844 -114.1789 69° East 423 487 41,000  Level Los Angeles Center
Wed 06:54:53 PM 36.4364 -114.0142 69° East 427 491 41,000  Level Los Angeles Center
Wed 06:55:55 PM 36.4869 -113.8494 69° East 426 490 41,000  Level Los Angeles Center
Wed 06:56:58 PM 36.5278 -113.7158 69° East 424 488 41,000  Level Los Angeles Center
Wed 06:58:00 PM 36.5692 -113.5794 69° East 422 486 41,000  Level Los Angeles Center
Wed 06:59:02 PM 36.6100 -113.4444 69° East 421 484 41,000  Level Los Angeles Center
Wed 07:00:04 PM 36.6514 -113.3083 69° East 421 484 41,000  Level Los Angeles Center
Wed 07:01:06 PM 36.7011 -113.1458 69° East 420 483 41,000  Level Los Angeles Center
Wed 07:02:20 PM 36.7417 -113.0108 69° East 419 482 41,000  Level Los Angeles Center
Wed 07:03:22 PM 36.7900 -112.8486 70° East 418 481 41,000  Level Los Angeles Center
Wed 07:04:24 PM 36.8300 -112.7114 70° East 423 487 41,000  Level Los Angeles Center
Wed 07:05:26 PM 36.8683 -112.5794 70° East 411 473 41,000  Level Los Angeles Center
Wed 07:06:28 PM 36.9156 -112.4211 70° East 407 468 41,000  Level Los Angeles Center
Wed 07:07:30 PM 36.9525 -112.2914 70° East 401 461 41,000  Level Los Angeles Center
Wed 07:08:32 PM 36.9906 -112.1631 70° East 397 457 41,000  Level Los Angeles Center
Wed 07:09:34 PM 37.0286 -112.0333 70° East 398 458 41,000  Level Los Angeles Center
Wed 07:10:36 PM 37.0650 -111.9025 71° East 399 459 41,000  Level Los Angeles Center
Wed 07:11:38 PM 37.1033 -111.7711 70° East 402 463 41,000  Level Los Angeles Center
Wed 07:12:31 PM 37.1400 -111.6408 71° East 403 464 41,000  Level Denver Center
Wed 07:13:33 PM 37.1764 -111.5100 71° East 401 461 41,000  Level Denver Center
Wed 07:14:36 PM 37.2136 -111.3786 70° East 400 460 41,000  Level Denver Center
Wed 07:15:38 PM 37.2506 -111.2483 70° East 399 459 41,000  Level Denver Center
Wed 07:16:40 PM 37.2947 -111.0906 71° East 401 461 41,000  Level Denver Center
Wed 07:17:42 PM 37.3303 -110.9606 71° East 397 457 41,000  Level Denver Center
Wed 07:18:44 PM 37.3658 -110.8297 71° East 396 456 41,000  Level Denver Center
Wed 07:19:46 PM 37.4025 -110.6989 71° East 398 458 41,000 -1,065 Level Denver Center
Wed 07:20:48 PM 37.4378 -110.5675 71° East 396 456 38,800 -2,081 Descending Denver Center
Wed 07:21:50 PM 37.4736 -110.4369 71° East 395 455 36,700 -1,645 Descending Denver Center
Wed 07:22:52 PM 37.5122 -110.2978 71° East 381 438 35,400 -1,403 Descending Denver Center
Wed 07:23:54 PM 37.5489 -110.1561 72° East 380 437 33,800 -1,452 Descending Denver Center
Wed 07:24:56 PM 37.5817 -110.0347 71° East 381 438 32,400 -1,355 Descending Denver Center
Wed 07:25:58 PM 37.6197 -109.8922 71° East 385 443 31,000 -1,258 Descending Denver Center
Wed 07:27:00 PM 37.6547 -109.7633 71° East 401 461 29,800 -1,403 Descending Denver Center
Wed 07:28:02 PM 37.6953 -109.6081 72° East 416 479 28,100 -1,500 Descending Denver Center
Wed 07:29:04 PM 37.7300 -109.4739 72° East 419 482 26,700 -920 Descending Denver Center
Wed 07:30:19 PM 37.7767 -109.2953 72° East 420 483 26,000 -569 Descending Denver Center
Wed 07:31:21 PM 37.8114 -109.1625 72° East 416 479 25,400 -1,016 Descending Denver Center
Wed 07:32:23 PM 37.8528 -109.0019 72° East 426 490 23,900 -1,355 Descending Denver Center
Wed 07:33:25 PM 37.8858 -108.8683 73° East 419 482 22,600 -1,403 Descending Denver Center
Wed 07:34:27 PM 37.9222 -108.7242 72° East 396 456 21,000 -1,548 Descending Denver Center
Wed 07:35:29 PM 37.9539 -108.6011 72° East 387 445 19,400 -1,548 Descending Denver Center
Wed 07:36:31 PM 38.0086 -108.5047 54° Northeast 362 417 17,800 -1,597 Descending Denver Center
Wed 07:37:33 PM 38.0789 -108.4158 45° Northeast 310 357 16,100 -1,597 Descending Denver Center
Wed 07:38:35 PM 38.1336 -108.3544 41° Northeast 285 328 14,500 -1,500 Descending Denver Center
Wed 07:39:37 PM 38.2039 -108.2681 44° Northeast 306 352 13,000 -720 Descending Denver Center
Wed 07:40:40 PM 38.2639 -108.1958 43° Northeast 311 358 13,000  Level Denver Center
Wed 07:41:42 PM 38.3364 -108.1081 44° Northeast 315 362 13,000  Level Denver Center
Wed 07:42:44 PM 38.4144 -108.0992 North 283 326 13,000  Level Denver Center
Wed 07:43:46 PM 38.4831 -108.1061 355° North 258 297 13,000  Level Denver Center
Wed 07:44:48 PM 38.5542 -108.1097 358° North 227 261 13,000 -1,306 Level Denver Center
Wed 07:45:50 PM 38.5864 -108.0419 59° Northeast 251 289 10,300 -2,710 Descending Denver Center
Wed 07:46:52 PM 38.5442 -107.9572 122° Southeast 287 330 7,400 -1,500 Descending Denver Center
Wed 07:47:54 PM 38.4786 -107.9581 181° South 249 287 7,200 -97 Descending Denver Center
Wed 07:48:56 PM 38.4492 -107.9286 142° Southeast 199 229 7,200 -339 Level Denver Center
Wed 07:49:58 PM 38.4708 -107.8917 53° Northeast 171 197 6,500 -726 Descending Denver Center
Wed 07:51:00 PM 38.5075 -107.8928 359° North 148 170 5,700 -774 Descending Denver Center

Login

Don't have an account? Register now (free) for customized features, flight alerts, and more!